SVA037 OERK-KIAD
Flight info
| Callsign | SVA037 |
|---|---|
| Flight time | N/A |
| Altitude | 30000 |
| Route | IVONU Z710 GAS G662 NIMAR L550 NOVPA N697 MENLI L677 CVO L617 NOZ/N0493F320 L617 NABSI M872 METRU DCT LORNO DCT DORAS DCT QUENN DCT EPIKU DCT GINOX DCT KIFMI/N0482F340 DCT ELVOP DCT MUREN DCT CHELY DCT VERSO DCT SULID DCT SADEM DCT BCN DCT SADUR DCT ARBEK DCT MECKI DCT LOBAR DCT DIRMU DCT VAKIN DCT ELSAP DCT YAKXU DCT VASUM DCT DGO DCT RATAS DCT NEDUS DCT NUBLO DCT SUSOS DCT STG DCT HIDRA/M083F340 DCT 46N020W 47N030W 46N040W 44N050W/M083F360 42N060W DCT DOVEY/N0481F380 DCT ACK Q430 RBV HYPER9 |
| Aircraft | B77W/H-SDE1E2E3FGHIJ2J3J4J5M1RWXY/LB1D1 |
Departure
| Time | 2026-05-04 04:18 |
|---|---|
| Airport | King Khalid International Airport (OERK) |
Arrival
| Time | N/A |
|---|---|
| Airport | Washington Dulles International Airport (KIAD) |
| Time | Latitude | Longitude | Altitude | Speed | Heading |
|---|---|---|---|---|---|
| 2026-05-04 03:32 | 24.96216 | 46.70293 | 2034 ft | 0 kts | 202° |
| 2026-05-04 04:02 | 24.96220 | 46.70295 | 2034 ft | 2 kts | 202° |
| 2026-05-04 04:02 | 24.96238 | 46.70303 | 2044 ft | 3 kts | 200° |
| 2026-05-04 04:03 | 24.96257 | 46.70311 | 2044 ft | 3 kts | 199° |
| 2026-05-04 04:03 | 24.96277 | 46.70318 | 2044 ft | 3 kts | 198° |
| 2026-05-04 04:03 | 24.96296 | 46.70325 | 2044 ft | 3 kts | 199° |
| 2026-05-04 04:03 | 24.96315 | 46.70332 | 2044 ft | 3 kts | 201° |
| 2026-05-04 04:04 | 24.96333 | 46.70340 | 2044 ft | 2 kts | 205° |
| 2026-05-04 04:04 | 24.96345 | 46.70346 | 2044 ft | 3 kts | 218° |
| 2026-05-04 04:04 | 24.96353 | 46.70354 | 2044 ft | 3 kts | 253° |
| 2026-05-04 04:04 | 24.96355 | 46.70363 | 2044 ft | 3 kts | 291° |
| 2026-05-04 04:05 | 24.96346 | 46.70380 | 2044 ft | 3 kts | 309° |
| 2026-05-04 04:05 | 24.96333 | 46.70396 | 2042 ft | 2 kts | 322° |
| 2026-05-04 04:05 | 24.96326 | 46.70402 | 2044 ft | 2 kts | 324° |
| 2026-05-04 04:05 | 24.96311 | 46.70413 | 2044 ft | 3 kts | 329° |
| 2026-05-04 04:06 | 24.96294 | 46.70424 | 2044 ft | 3 kts | 333° |
| 2026-05-04 04:06 | 24.96276 | 46.70434 | 2044 ft | 3 kts | 331° |
| 2026-05-04 04:06 | 24.96266 | 46.70440 | 2044 ft | 0 kts | 329° |
| 2026-05-04 04:09 | 24.96277 | 46.70433 | 2044 ft | 6 kts | 329° |
| 2026-05-04 04:09 | 24.96312 | 46.70410 | 2041 ft | 6 kts | 330° |
| 2026-05-04 04:09 | 24.96365 | 46.70411 | 2037 ft | 9 kts | 39° |
| 2026-05-04 04:09 | 24.96403 | 46.70470 | 2044 ft | 9 kts | 59° |
| 2026-05-04 04:10 | 24.96437 | 46.70531 | 2042 ft | 9 kts | 60° |
| 2026-05-04 04:10 | 24.96463 | 46.70597 | 2038 ft | 9 kts | 86° |
| 2026-05-04 04:10 | 24.96420 | 46.70657 | 2042 ft | 12 kts | 145° |
| 2026-05-04 04:10 | 24.96351 | 46.70703 | 2040 ft | 14 kts | 149° |
| 2026-05-04 04:11 | 24.96244 | 46.70772 | 2035 ft | 19 kts | 150° |
| 2026-05-04 04:11 | 24.96131 | 46.70842 | 2044 ft | 19 kts | 150° |
| 2026-05-04 04:11 | 24.96018 | 46.70914 | 2039 ft | 19 kts | 150° |
| 2026-05-04 04:11 | 24.95906 | 46.70985 | 2042 ft | 19 kts | 150° |
| 2026-05-04 04:12 | 24.95794 | 46.71056 | 2043 ft | 19 kts | 150° |
| 2026-05-04 04:12 | 24.95681 | 46.71128 | 2045 ft | 19 kts | 150° |
| 2026-05-04 04:12 | 24.95569 | 46.71199 | 2045 ft | 19 kts | 150° |
| 2026-05-04 04:12 | 24.95458 | 46.71270 | 2045 ft | 19 kts | 150° |
| 2026-05-04 04:13 | 24.95344 | 46.71342 | 2043 ft | 19 kts | 150° |
| 2026-05-04 04:13 | 24.95233 | 46.71412 | 2044 ft | 19 kts | 150° |
| 2026-05-04 04:13 | 24.95121 | 46.71484 | 2045 ft | 19 kts | 150° |
| 2026-05-04 04:13 | 24.95008 | 46.71555 | 2044 ft | 19 kts | 150° |
| 2026-05-04 04:14 | 24.94896 | 46.71627 | 2043 ft | 19 kts | 150° |
| 2026-05-04 04:14 | 24.94783 | 46.71698 | 2041 ft | 19 kts | 150° |
| 2026-05-04 04:14 | 24.94670 | 46.71769 | 2044 ft | 19 kts | 150° |
| 2026-05-04 04:14 | 24.94559 | 46.71839 | 2046 ft | 19 kts | 150° |
| 2026-05-04 04:15 | 24.94447 | 46.71910 | 2044 ft | 19 kts | 150° |
| 2026-05-04 04:15 | 24.94363 | 46.71963 | 2040 ft | 11 kts | 150° |
| 2026-05-04 04:15 | 24.94303 | 46.72018 | 2044 ft | 11 kts | 114° |
| 2026-05-04 04:15 | 24.94323 | 46.72100 | 2044 ft | 11 kts | 63° |
| 2026-05-04 04:16 | 24.94362 | 46.72177 | 2040 ft | 11 kts | 61° |
| 2026-05-04 04:16 | 24.94397 | 46.72246 | 2041 ft | 8 kts | 54° |
| 2026-05-04 04:16 | 24.94448 | 46.72251 | 2045 ft | 7 kts | 339° |
| 2026-05-04 04:16 | 24.94470 | 46.72235 | 2041 ft | 0 kts | 330° |
| 2026-05-04 04:17 | 24.94579 | 46.72166 | 2042 ft | 52 kts | 330° |
| 2026-05-04 04:17 | 24.95119 | 46.71825 | 2043 ft | 126 kts | 330° |
| 2026-05-04 04:17 | 24.96070 | 46.71219 | 2044 ft | 192 kts | 329° |
| 2026-05-04 04:18 | 24.97296 | 46.70442 | 2554 ft | 199 kts | 330° |
| 2026-05-04 04:18 | 24.98532 | 46.69740 | 3276 ft | 205 kts | 340° |
| 2026-05-04 04:18 | 24.99900 | 46.69253 | 3890 ft | 209 kts | 343° |
| 2026-05-04 04:18 | 25.01337 | 46.68722 | 4002 ft | 225 kts | 341° |
| 2026-05-04 04:19 | 25.02857 | 46.68124 | 4196 ft | 240 kts | 340° |
| 2026-05-04 04:19 | 25.04475 | 46.67487 | 4298 ft | 259 kts | 340° |
| 2026-05-04 04:19 | 25.06219 | 46.66787 | 4483 ft | 272 kts | 335° |
| 2026-05-04 04:19 | 25.07771 | 46.65559 | 4767 ft | 281 kts | 308° |
| 2026-05-04 04:20 | 25.08675 | 46.63651 | 5257 ft | 284 kts | 284° |
| 2026-05-04 04:20 | 25.08834 | 46.61499 | 5822 ft | 282 kts | 261° |
| 2026-05-04 04:20 | 25.08446 | 46.59381 | 6348 ft | 284 kts | 259° |
| 2026-05-04 04:20 | 25.08051 | 46.57246 | 6959 ft | 283 kts | 259° |
| 2026-05-04 04:21 | 25.07670 | 46.55118 | 7565 ft | 282 kts | 261° |
| 2026-05-04 04:21 | 25.07495 | 46.52958 | 8084 ft | 284 kts | 269° |
| 2026-05-04 04:21 | 25.07473 | 46.50770 | 8678 ft | 285 kts | 270° |
| 2026-05-04 04:21 | 25.07469 | 46.48610 | 9260 ft | 286 kts | 270° |
| 2026-05-04 04:22 | 25.07454 | 46.46408 | 9855 ft | 286 kts | 269° |
| 2026-05-04 04:22 | 25.07428 | 46.44200 | 10320 ft | 292 kts | 269° |
| 2026-05-04 04:22 | 25.07392 | 46.41883 | 10434 ft | 310 kts | 269° |
| 2026-05-04 04:22 | 25.07346 | 46.39435 | 10579 ft | 328 kts | 269° |
| 2026-05-04 04:23 | 25.07293 | 46.36881 | 10708 ft | 345 kts | 269° |
| 2026-05-04 04:23 | 25.07236 | 46.34178 | 10939 ft | 359 kts | 269° |
| 2026-05-04 04:23 | 25.07175 | 46.31392 | 11353 ft | 367 kts | 269° |
| 2026-05-04 04:23 | 25.07110 | 46.28562 | 11871 ft | 371 kts | 268° |
| 2026-05-04 04:24 | 25.07045 | 46.25701 | 12447 ft | 374 kts | 268° |
| 2026-05-04 04:24 | 25.06978 | 46.22814 | 13015 ft | 378 kts | 268° |
| 2026-05-04 04:24 | 25.06910 | 46.19900 | 13579 ft | 381 kts | 268° |
| 2026-05-04 04:24 | 25.06842 | 46.16968 | 14101 ft | 385 kts | 268° |
| 2026-05-04 04:25 | 25.06772 | 46.14003 | 14622 ft | 387 kts | 268° |
| 2026-05-04 04:25 | 25.06701 | 46.11029 | 15161 ft | 389 kts | 268° |
| 2026-05-04 04:25 | 25.06629 | 46.08032 | 15712 ft | 391 kts | 268° |
| 2026-05-04 04:25 | 25.06557 | 46.05057 | 16213 ft | 394 kts | 268° |
| 2026-05-04 04:26 | 25.06483 | 46.02023 | 16742 ft | 397 kts | 268° |
| 2026-05-04 04:26 | 25.06408 | 45.98978 | 17251 ft | 399 kts | 268° |
| 2026-05-04 04:26 | 25.06332 | 45.95908 | 17773 ft | 401 kts | 268° |
| 2026-05-04 04:26 | 25.06256 | 45.92824 | 18273 ft | 404 kts | 268° |
| 2026-05-04 04:27 | 25.06177 | 45.89713 | 18693 ft | 407 kts | 268° |
| 2026-05-04 04:27 | 25.06098 | 45.86585 | 19130 ft | 409 kts | 268° |
| 2026-05-04 04:27 | 25.06017 | 45.83438 | 19569 ft | 411 kts | 268° |
| 2026-05-04 04:27 | 25.05936 | 45.80277 | 20013 ft | 413 kts | 268° |
| 2026-05-04 04:28 | 25.05854 | 45.77102 | 20429 ft | 416 kts | 267° |
| 2026-05-04 04:28 | 25.05770 | 45.73904 | 20829 ft | 418 kts | 267° |
| 2026-05-04 04:28 | 25.05686 | 45.70724 | 21239 ft | 421 kts | 267° |
| 2026-05-04 04:28 | 25.05822 | 45.67498 | 21553 ft | 425 kts | 279° |
| 2026-05-04 04:29 | 25.06798 | 45.64400 | 21856 ft | 429 kts | 294° |
| 2026-05-04 04:29 | 25.08148 | 45.61442 | 22200 ft | 433 kts | 294° |
| 2026-05-04 04:29 | 25.09497 | 45.58463 | 22597 ft | 436 kts | 294° |
| 2026-05-04 04:29 | 25.10842 | 45.55454 | 23006 ft | 438 kts | 294° |
| 2026-05-04 04:30 | 25.12181 | 45.52432 | 23414 ft | 440 kts | 293° |
| 2026-05-04 04:30 | 25.13520 | 45.49385 | 23750 ft | 442 kts | 293° |
| 2026-05-04 04:30 | 25.14859 | 45.46325 | 24080 ft | 443 kts | 293° |
| 2026-05-04 04:30 | 25.16198 | 45.43254 | 24449 ft | 444 kts | 293° |
| 2026-05-04 04:31 | 25.17536 | 45.40183 | 24814 ft | 444 kts | 293° |
| 2026-05-04 04:31 | 25.18874 | 45.37108 | 25162 ft | 445 kts | 293° |
| 2026-05-04 04:31 | 25.20217 | 45.34019 | 25498 ft | 446 kts | 292° |
| 2026-05-04 04:31 | 25.21544 | 45.30967 | 25819 ft | 447 kts | 292° |
| 2026-05-04 04:32 | 25.22888 | 45.27871 | 26129 ft | 448 kts | 292° |
| 2026-05-04 04:32 | 25.24237 | 45.24762 | 26449 ft | 449 kts | 292° |
| 2026-05-04 04:32 | 25.25550 | 45.21734 | 26759 ft | 450 kts | 292° |
| 2026-05-04 04:32 | 25.26904 | 45.18612 | 27068 ft | 451 kts | 292° |
| 2026-05-04 04:33 | 25.28262 | 45.15476 | 27357 ft | 452 kts | 292° |
| 2026-05-04 04:33 | 25.29623 | 45.12333 | 27639 ft | 454 kts | 292° |
| 2026-05-04 04:33 | 25.30985 | 45.09185 | 27901 ft | 455 kts | 292° |
| 2026-05-04 04:33 | 25.32350 | 45.06026 | 28180 ft | 456 kts | 292° |
| 2026-05-04 04:34 | 25.33719 | 45.02857 | 28431 ft | 457 kts | 292° |
| 2026-05-04 04:34 | 25.35091 | 44.99677 | 28694 ft | 458 kts | 292° |
| 2026-05-04 04:34 | 25.36447 | 44.96533 | 28937 ft | 459 kts | 292° |
| 2026-05-04 04:34 | 25.37822 | 44.93343 | 29144 ft | 460 kts | 291° |
| 2026-05-04 04:35 | 25.39200 | 44.90144 | 29362 ft | 461 kts | 291° |
| 2026-05-04 04:35 | 25.40579 | 44.86941 | 29636 ft | 460 kts | 291° |
| 2026-05-04 04:35 | 25.41954 | 44.83743 | 29921 ft | 460 kts | 291° |
| 2026-05-04 04:35 | 25.43332 | 44.80536 | 29943 ft | 461 kts | 291° |
| 2026-05-04 04:36 | 25.46059 | 44.74184 | 29979 ft | 458 kts | 291° |
| 2026-05-04 04:36 | 25.48788 | 44.67818 | 29991 ft | 457 kts | 291° |
| 2026-05-04 04:37 | 25.55289 | 44.55683 | 29982 ft | 466 kts | 304° |
| 2026-05-04 04:38 | 25.59834 | 44.50513 | 29987 ft | 471 kts | 311° |
| 2026-05-04 04:38 | 25.64670 | 44.45604 | 29978 ft | 472 kts | 312° |
| 2026-05-04 04:39 | 25.69477 | 44.40715 | 29983 ft | 471 kts | 311° |
| 2026-05-04 04:39 | 25.74283 | 44.35773 | 29979 ft | 471 kts | 311° |
| 2026-05-04 04:40 | 25.79072 | 44.30820 | 29978 ft | 470 kts | 311° |
| 2026-05-04 04:40 | 25.83858 | 44.25861 | 29979 ft | 470 kts | 311° |
| 2026-05-04 04:41 | 25.88640 | 44.20904 | 29972 ft | 470 kts | 311° |
| 2026-05-04 04:41 | 25.93418 | 44.15947 | 29979 ft | 469 kts | 311° |
| 2026-05-04 04:42 | 25.98186 | 44.10994 | 29974 ft | 469 kts | 311° |
| 2026-05-04 04:42 | 26.02953 | 44.06036 | 29976 ft | 469 kts | 311° |
| 2026-05-04 04:43 | 26.07714 | 44.01078 | 29980 ft | 469 kts | 311° |
| 2026-05-04 04:43 | 26.12450 | 43.96141 | 29983 ft | 469 kts | 311° |
| 2026-05-04 04:44 | 26.17216 | 43.91167 | 29985 ft | 469 kts | 311° |
| 2026-05-04 04:44 | 26.21975 | 43.86192 | 29994 ft | 469 kts | 311° |
| 2026-05-04 04:45 | 26.26734 | 43.81211 | 29994 ft | 468 kts | 310° |
| 2026-05-04 04:47 | 26.39269 | 43.60745 | 29981 ft | 457 kts | 296° |
| 2026-05-04 04:47 | 26.42579 | 43.54681 | 29985 ft | 457 kts | 296° |
| 2026-05-04 04:48 | 26.45890 | 43.48621 | 29984 ft | 457 kts | 296° |
| 2026-05-04 04:49 | 26.54146 | 43.33476 | 29972 ft | 457 kts | 296° |
| 2026-05-04 04:49 | 26.57451 | 43.27397 | 29978 ft | 457 kts | 296° |
| 2026-05-04 04:50 | 26.60750 | 43.21319 | 29977 ft | 456 kts | 296° |
| 2026-05-04 04:50 | 26.64023 | 43.15284 | 29979 ft | 456 kts | 296° |
| 2026-05-04 04:51 | 26.67317 | 43.09214 | 29976 ft | 456 kts | 296° |
| 2026-05-04 04:51 | 26.70614 | 43.03141 | 29985 ft | 457 kts | 296° |
| 2026-05-04 04:52 | 26.73913 | 42.97056 | 29993 ft | 457 kts | 295° |
| 2026-05-04 04:52 | 26.77202 | 42.90979 | 29990 ft | 455 kts | 295° |
| 2026-05-04 04:53 | 26.80450 | 42.84967 | 29994 ft | 454 kts | 295° |
| 2026-05-04 04:53 | 26.83710 | 42.78926 | 29991 ft | 453 kts | 295° |
| 2026-05-04 04:54 | 26.86963 | 42.72887 | 30000 ft | 452 kts | 295° |
| 2026-05-04 04:54 | 26.90210 | 42.66851 | 30002 ft | 452 kts | 295° |
| 2026-05-04 04:55 | 26.93451 | 42.60819 | 30004 ft | 452 kts | 294° |
| 2026-05-04 04:55 | 26.96152 | 42.55787 | 30013 ft | 452 kts | 294° |
| 2026-05-04 04:56 | 26.99923 | 42.48749 | 30017 ft | 453 kts | 294° |
| 2026-05-04 04:56 | 27.02618 | 42.43715 | 30015 ft | 453 kts | 294° |
| 2026-05-04 04:57 | 27.05854 | 42.37660 | 30003 ft | 452 kts | 294° |
| 2026-05-04 04:57 | 27.09085 | 42.31608 | 30010 ft | 452 kts | 294° |
| 2026-05-04 04:58 | 27.12306 | 42.25551 | 30022 ft | 451 kts | 294° |
| 2026-05-04 04:58 | 27.15491 | 42.19547 | 30053 ft | 449 kts | 294° |
| 2026-05-04 04:59 | 27.18689 | 42.13506 | 30025 ft | 449 kts | 294° |
| 2026-05-04 04:59 | 27.21883 | 42.07473 | 30031 ft | 449 kts | 294° |
| 2026-05-04 05:00 | 27.25072 | 42.01436 | 30037 ft | 449 kts | 294° |
| 2026-05-04 05:01 | 27.29856 | 41.92366 | 30056 ft | 449 kts | 294° |
| 2026-05-04 05:01 | 27.33017 | 41.86364 | 30068 ft | 449 kts | 294° |
| 2026-05-04 05:02 | 27.36199 | 41.80311 | 30075 ft | 448 kts | 294° |
| 2026-05-04 05:02 | 27.39374 | 41.74265 | 30081 ft | 448 kts | 294° |
| 2026-05-04 05:03 | 27.42900 | 41.68468 | 30077 ft | 456 kts | 302° |
| 2026-05-04 05:04 | 27.52084 | 41.58325 | 30095 ft | 466 kts | 309° |
| 2026-05-04 05:04 | 27.56884 | 41.53411 | 30063 ft | 466 kts | 309° |
| 2026-05-04 05:06 | 27.75865 | 41.33719 | 30042 ft | 463 kts | 309° |
| 2026-05-04 05:07 | 27.80568 | 41.28819 | 30050 ft | 462 kts | 309° |
| 2026-05-04 05:07 | 27.85301 | 41.23882 | 30048 ft | 463 kts | 309° |
| 2026-05-04 05:09 | 28.06593 | 41.01631 | 30054 ft | 465 kts | 309° |
| 2026-05-04 05:10 | 28.11350 | 40.96647 | 30049 ft | 466 kts | 309° |
| 2026-05-04 05:10 | 28.16106 | 40.91655 | 30051 ft | 466 kts | 309° |
| 2026-05-04 05:11 | 28.20867 | 40.86652 | 30039 ft | 467 kts | 310° |
| 2026-05-04 05:11 | 28.25615 | 40.81654 | 30056 ft | 470 kts | 309° |
| 2026-05-04 05:12 | 28.30416 | 40.76596 | 30066 ft | 472 kts | 310° |
| 2026-05-04 05:12 | 28.35232 | 40.71517 | 30065 ft | 473 kts | 310° |
| 2026-05-04 05:13 | 28.40051 | 40.66427 | 30057 ft | 472 kts | 310° |
| 2026-05-04 05:13 | 28.44853 | 40.61350 | 30062 ft | 471 kts | 309° |
| 2026-05-04 05:14 | 28.49636 | 40.56287 | 30067 ft | 469 kts | 309° |
| 2026-05-04 05:14 | 28.54379 | 40.51257 | 30069 ft | 468 kts | 309° |
| 2026-05-04 05:15 | 28.59139 | 40.46202 | 30075 ft | 468 kts | 309° |
| 2026-05-04 05:15 | 28.63892 | 40.41148 | 30080 ft | 467 kts | 309° |
| 2026-05-04 05:16 | 28.68651 | 40.36081 | 30077 ft | 468 kts | 309° |
| 2026-05-04 05:16 | 28.73401 | 40.31018 | 30083 ft | 468 kts | 309° |
| 2026-05-04 05:17 | 28.78154 | 40.25946 | 30087 ft | 468 kts | 309° |
| 2026-05-04 05:17 | 28.82878 | 40.20897 | 30094 ft | 468 kts | 309° |
| 2026-05-04 05:18 | 28.87631 | 40.15811 | 30093 ft | 468 kts | 309° |
| 2026-05-04 05:18 | 28.92385 | 40.10717 | 30097 ft | 468 kts | 309° |
| 2026-05-04 05:19 | 28.97128 | 40.05627 | 30096 ft | 467 kts | 309° |
| 2026-05-04 05:19 | 29.01838 | 40.00566 | 30100 ft | 467 kts | 309° |
| 2026-05-04 05:20 | 29.06568 | 39.95477 | 30102 ft | 466 kts | 309° |
| 2026-05-04 05:20 | 29.08683 | 39.92745 | 30105 ft | 450 kts | 295° |
| 2026-05-04 05:20 | 29.10072 | 39.89601 | 30107 ft | 439 kts | 284° |
| 2026-05-04 05:21 | 29.11169 | 39.82831 | 30109 ft | 430 kts | 266° |
| 2026-05-04 05:21 | 29.11116 | 39.75972 | 30098 ft | 437 kts | 266° |
| 2026-05-04 05:22 | 29.11089 | 39.69000 | 30098 ft | 439 kts | 266° |
| 2026-05-04 05:22 | 29.11097 | 39.62080 | 30100 ft | 431 kts | 266° |
| 2026-05-04 05:23 | 29.11114 | 39.55228 | 30108 ft | 431 kts | 266° |
| 2026-05-04 05:23 | 29.11126 | 39.48370 | 30110 ft | 431 kts | 266° |
| 2026-05-04 05:24 | 29.11135 | 39.41512 | 30105 ft | 431 kts | 266° |
| 2026-05-04 05:24 | 29.11141 | 39.34693 | 30091 ft | 432 kts | 266° |
| 2026-05-04 05:25 | 29.11143 | 39.27822 | 30091 ft | 432 kts | 266° |
| 2026-05-04 05:25 | 29.11141 | 39.20948 | 30088 ft | 432 kts | 266° |
| 2026-05-04 05:26 | 29.11136 | 39.14083 | 30092 ft | 431 kts | 266° |
| 2026-05-04 05:26 | 29.11128 | 39.07221 | 30085 ft | 431 kts | 266° |
| 2026-05-04 05:28 | 29.11049 | 38.79867 | 30082 ft | 430 kts | 266° |
| 2026-05-04 05:29 | 29.11017 | 38.73023 | 30072 ft | 430 kts | 266° |
| 2026-05-04 05:29 | 29.10982 | 38.66218 | 30073 ft | 430 kts | 266° |
| 2026-05-04 05:31 | 29.10809 | 38.38882 | 30063 ft | 428 kts | 266° |
| 2026-05-04 05:32 | 29.10754 | 38.32116 | 30065 ft | 427 kts | 266° |
| 2026-05-04 05:33 | 29.10659 | 38.21918 | 30059 ft | 427 kts | 266° |
| 2026-05-04 05:33 | 29.10593 | 38.15125 | 30058 ft | 427 kts | 266° |
| 2026-05-04 05:34 | 29.10523 | 38.08325 | 30051 ft | 427 kts | 266° |
| 2026-05-04 05:34 | 29.10451 | 38.01578 | 30051 ft | 426 kts | 266° |
| 2026-05-04 05:35 | 29.10375 | 37.94793 | 30045 ft | 426 kts | 266° |
| 2026-05-04 05:35 | 29.10297 | 37.88155 | 30047 ft | 425 kts | 266° |
| 2026-05-04 05:36 | 29.10214 | 37.81391 | 30045 ft | 425 kts | 266° |
| 2026-05-04 05:36 | 29.10129 | 37.74665 | 30039 ft | 425 kts | 266° |
| 2026-05-04 05:37 | 29.10039 | 37.67902 | 30037 ft | 425 kts | 266° |
| 2026-05-04 05:37 | 29.09947 | 37.61149 | 30039 ft | 424 kts | 266° |
| 2026-05-04 05:38 | 29.09802 | 37.51036 | 30034 ft | 424 kts | 266° |
| 2026-05-04 05:38 | 29.09742 | 37.44335 | 30032 ft | 423 kts | 266° |
| 2026-05-04 05:39 | 29.09686 | 37.34254 | 30026 ft | 423 kts | 266° |
| 2026-05-04 05:40 | 29.09614 | 37.24168 | 30024 ft | 422 kts | 266° |
| 2026-05-04 05:40 | 29.09560 | 37.17453 | 30022 ft | 422 kts | 266° |
| 2026-05-04 05:41 | 29.09502 | 37.10750 | 30017 ft | 421 kts | 266° |
| 2026-05-04 05:41 | 29.09441 | 37.04096 | 30018 ft | 421 kts | 266° |
| 2026-05-04 05:42 | 29.09376 | 36.97391 | 30013 ft | 421 kts | 266° |
| 2026-05-04 05:42 | 29.09308 | 36.90700 | 30016 ft | 421 kts | 266° |
| 2026-05-04 05:43 | 29.09237 | 36.84011 | 30006 ft | 421 kts | 266° |
| 2026-05-04 05:45 | 29.08921 | 36.57273 | 30023 ft | 421 kts | 266° |
| 2026-05-04 05:47 | 29.08328 | 36.30504 | 30022 ft | 421 kts | 265° |
| 2026-05-04 05:47 | 29.08137 | 36.23813 | 30027 ft | 421 kts | 265° |
| 2026-05-04 05:48 | 29.07946 | 36.17125 | 30023 ft | 421 kts | 265° |
| 2026-05-04 05:48 | 29.07785 | 36.11567 | 30030 ft | 421 kts | 265° |
| 2026-05-04 05:49 | 29.07589 | 36.04865 | 30025 ft | 421 kts | 265° |
| 2026-05-04 05:49 | 29.07389 | 35.98164 | 30030 ft | 421 kts | 265° |
| 2026-05-04 05:51 | 29.06558 | 35.71403 | 30044 ft | 421 kts | 265° |
| 2026-05-04 05:52 | 29.06342 | 35.64701 | 30040 ft | 421 kts | 265° |
| 2026-05-04 05:52 | 29.06122 | 35.58002 | 30049 ft | 421 kts | 265° |
| 2026-05-04 05:54 | 29.05212 | 35.31263 | 30054 ft | 421 kts | 265° |
| 2026-05-04 05:55 | 29.04973 | 35.24580 | 30068 ft | 420 kts | 265° |
| 2026-05-04 05:55 | 29.04738 | 35.17921 | 30052 ft | 419 kts | 265° |
| 2026-05-04 05:56 | 29.04497 | 35.11273 | 30051 ft | 419 kts | 265° |
| 2026-05-04 05:56 | 29.04252 | 35.04626 | 30055 ft | 418 kts | 265° |
| 2026-05-04 05:57 | 29.04004 | 34.97992 | 30058 ft | 418 kts | 265° |
| 2026-05-04 05:57 | 29.03761 | 34.91518 | 30059 ft | 418 kts | 265° |
| 2026-05-04 05:58 | 29.03506 | 34.84869 | 30044 ft | 419 kts | 265° |
| 2026-05-04 05:58 | 29.03342 | 34.78218 | 30042 ft | 419 kts | 266° |
| 2026-05-04 05:59 | 29.03305 | 34.71563 | 30041 ft | 420 kts | 271° |
| 2026-05-04 05:59 | 29.04138 | 34.64936 | 30042 ft | 423 kts | 277° |
| 2026-05-04 06:00 | 29.05676 | 34.58421 | 30038 ft | 427 kts | 283° |
| 2026-05-04 06:00 | 29.07581 | 34.52034 | 30051 ft | 426 kts | 284° |
| 2026-05-04 06:01 | 29.09465 | 34.45727 | 30065 ft | 426 kts | 284° |
| 2026-05-04 06:03 | 29.16969 | 34.20042 | 30092 ft | 425 kts | 283° |
| 2026-05-04 06:05 | 29.25324 | 33.91162 | 30102 ft | 425 kts | 284° |
| 2026-05-04 06:06 | 29.27173 | 33.84742 | 30101 ft | 424 kts | 284° |
| 2026-05-04 06:06 | 29.29022 | 33.78313 | 30097 ft | 423 kts | 284° |
| 2026-05-04 06:07 | 29.30860 | 33.71902 | 30094 ft | 423 kts | 284° |
| 2026-05-04 06:07 | 29.32680 | 33.65542 | 30100 ft | 423 kts | 284° |
| 2026-05-04 06:08 | 29.34511 | 33.59133 | 30105 ft | 422 kts | 284° |
| 2026-05-04 06:08 | 29.36330 | 33.52751 | 30100 ft | 421 kts | 284° |
| 2026-05-04 06:09 | 29.38148 | 33.46364 | 30105 ft | 420 kts | 284° |
| 2026-05-04 06:11 | 29.45338 | 33.20961 | 30113 ft | 418 kts | 283° |
| 2026-05-04 06:13 | 29.52479 | 32.95523 | 30113 ft | 419 kts | 283° |
| 2026-05-04 06:14 | 29.58682 | 32.73257 | 30116 ft | 419 kts | 283° |
| 2026-05-04 06:15 | 29.60395 | 32.66863 | 30100 ft | 416 kts | 281° |
| 2026-05-04 06:15 | 29.61850 | 32.60465 | 30109 ft | 415 kts | 280° |
| 2026-05-04 06:16 | 29.63288 | 32.54047 | 30107 ft | 414 kts | 280° |
| 2026-05-04 06:16 | 29.64731 | 32.47630 | 30105 ft | 414 kts | 280° |
| 2026-05-04 06:17 | 29.66174 | 32.41223 | 30100 ft | 413 kts | 280° |
| 2026-05-04 06:17 | 29.67616 | 32.34810 | 30099 ft | 413 kts | 280° |
| 2026-05-04 06:18 | 29.69050 | 32.28418 | 30100 ft | 413 kts | 280° |
| 2026-05-04 06:20 | 29.74750 | 32.02850 | 30106 ft | 414 kts | 280° |
| 2026-05-04 06:21 | 29.79013 | 31.86998 | 30105 ft | 420 kts | 290° |
| 2026-05-04 06:22 | 29.81890 | 31.81111 | 30094 ft | 426 kts | 298° |
| 2026-05-04 06:25 | 30.06473 | 31.43053 | 30102 ft | 421 kts | 300° |
| 2026-05-04 06:26 | 30.10151 | 31.37816 | 30115 ft | 426 kts | 306° |
| 2026-05-04 06:26 | 30.14516 | 31.33066 | 30111 ft | 430 kts | 309° |
| 2026-05-04 06:27 | 30.25429 | 31.21400 | 30096 ft | 427 kts | 309° |
| 2026-05-04 06:28 | 30.29773 | 31.16727 | 30094 ft | 426 kts | 309° |
| 2026-05-04 06:28 | 30.34103 | 31.12062 | 30076 ft | 425 kts | 309° |
| 2026-05-04 06:29 | 30.38430 | 31.07394 | 30069 ft | 424 kts | 309° |
| 2026-05-04 06:29 | 30.42752 | 31.02726 | 30075 ft | 424 kts | 309° |
| 2026-05-04 06:30 | 30.47071 | 30.98055 | 30087 ft | 424 kts | 309° |
| 2026-05-04 06:30 | 30.51396 | 30.93372 | 30081 ft | 424 kts | 308° |
| 2026-05-04 06:31 | 30.55678 | 30.88730 | 30088 ft | 424 kts | 309° |
| 2026-05-04 06:31 | 30.59994 | 30.84046 | 30086 ft | 424 kts | 308° |
| 2026-05-04 06:33 | 30.77132 | 30.65385 | 30074 ft | 421 kts | 309° |
| 2026-05-04 06:34 | 30.81397 | 30.60725 | 30090 ft | 420 kts | 308° |
| 2026-05-04 06:34 | 30.85651 | 30.56072 | 30078 ft | 419 kts | 309° |
| 2026-05-04 06:36 | 31.02598 | 30.37473 | 30072 ft | 418 kts | 309° |
| 2026-05-04 06:37 | 31.06085 | 30.33516 | 30066 ft | 413 kts | 303° |
| 2026-05-04 06:37 | 31.09234 | 30.28085 | 30086 ft | 405 kts | 294° |
| 2026-05-04 06:38 | 31.11508 | 30.22074 | 30082 ft | 405 kts | 285° |
| 2026-05-04 06:40 | 31.18606 | 29.97039 | 30085 ft | 407 kts | 292° |
| 2026-05-04 06:40 | 31.21289 | 29.91201 | 30079 ft | 409 kts | 296° |
| 2026-05-04 06:41 | 31.24580 | 29.85742 | 30085 ft | 411 kts | 301° |
| 2026-05-04 06:41 | 31.27970 | 29.80376 | 30075 ft | 410 kts | 301° |
| 2026-05-04 06:42 | 31.31350 | 29.74992 | 30079 ft | 410 kts | 300° |
| 2026-05-04 06:44 | 31.44758 | 29.53414 | 30084 ft | 411 kts | 300° |
| 2026-05-04 06:44 | 31.48116 | 29.47990 | 30082 ft | 411 kts | 300° |
| 2026-05-04 06:45 | 31.51472 | 29.42560 | 30086 ft | 411 kts | 300° |
| 2026-05-04 06:45 | 31.54803 | 29.37164 | 30089 ft | 411 kts | 300° |
| 2026-05-04 06:46 | 31.58155 | 29.31727 | 30089 ft | 411 kts | 300° |
| 2026-05-04 06:46 | 31.61485 | 29.26290 | 30092 ft | 410 kts | 300° |
| 2026-05-04 06:48 | 31.74753 | 29.04489 | 30108 ft | 410 kts | 300° |
| 2026-05-04 06:50 | 31.87938 | 28.82832 | 31682 ft | 401 kts | 301° |
| 2026-05-04 06:51 | 31.89561 | 28.80156 | 31936 ft | 401 kts | 301° |
| 2026-05-04 06:51 | 31.91181 | 28.77480 | 32032 ft | 402 kts | 301° |
| 2026-05-04 06:51 | 31.94420 | 28.72127 | 32097 ft | 400 kts | 301° |
| 2026-05-04 06:52 | 31.97622 | 28.66831 | 32112 ft | 398 kts | 301° |
| 2026-05-04 06:52 | 32.00829 | 28.61519 | 32118 ft | 397 kts | 301° |
| 2026-05-04 06:53 | 32.04030 | 28.56208 | 32113 ft | 397 kts | 301° |
| 2026-05-04 06:53 | 32.07232 | 28.50888 | 32116 ft | 398 kts | 301° |
| 2026-05-04 06:54 | 32.10439 | 28.45554 | 32114 ft | 398 kts | 301° |
| 2026-05-04 06:54 | 32.13646 | 28.40211 | 32116 ft | 399 kts | 301° |
| 2026-05-04 06:55 | 32.16834 | 28.34893 | 32118 ft | 399 kts | 301° |
| 2026-05-04 06:55 | 32.20040 | 28.29537 | 32104 ft | 399 kts | 301° |
| 2026-05-04 06:57 | 32.32828 | 28.08101 | 32117 ft | 398 kts | 301° |
| 2026-05-04 06:58 | 32.36013 | 28.02743 | 32115 ft | 398 kts | 301° |
| 2026-05-04 06:58 | 32.39196 | 27.97381 | 32118 ft | 398 kts | 301° |
| 2026-05-04 06:59 | 32.42376 | 27.92016 | 32120 ft | 397 kts | 301° |
| 2026-05-04 06:59 | 32.45532 | 27.86684 | 32123 ft | 397 kts | 301° |
| 2026-05-04 07:01 | 32.58145 | 27.65297 | 32119 ft | 397 kts | 301° |
| 2026-05-04 07:02 | 32.61286 | 27.59953 | 32118 ft | 397 kts | 301° |
| 2026-05-04 07:02 | 32.64444 | 27.54571 | 32120 ft | 397 kts | 301° |
| 2026-05-04 07:03 | 32.67602 | 27.49181 | 32122 ft | 397 kts | 302° |
| 2026-05-04 07:03 | 32.70735 | 27.43828 | 32126 ft | 397 kts | 302° |
| 2026-05-04 07:04 | 32.73884 | 27.38440 | 32123 ft | 397 kts | 302° |
| 2026-05-04 07:04 | 32.77035 | 27.33042 | 32120 ft | 397 kts | 302° |
| 2026-05-04 07:05 | 32.80184 | 27.27638 | 32120 ft | 397 kts | 302° |
| 2026-05-04 07:05 | 32.83333 | 27.22226 | 32128 ft | 398 kts | 302° |
| 2026-05-04 07:06 | 32.88033 | 27.14132 | 32125 ft | 398 kts | 302° |
| 2026-05-04 07:07 | 32.91179 | 27.08704 | 32128 ft | 398 kts | 302° |
| 2026-05-04 07:09 | 33.03694 | 26.86995 | 32127 ft | 398 kts | 302° |
| 2026-05-04 07:09 | 33.06818 | 26.81537 | 32131 ft | 398 kts | 302° |
| 2026-05-04 07:10 | 33.09940 | 26.76078 | 32132 ft | 398 kts | 302° |
| 2026-05-04 07:12 | 33.22389 | 26.54230 | 32136 ft | 398 kts | 302° |
| 2026-05-04 07:12 | 33.25501 | 26.48747 | 32134 ft | 398 kts | 302° |
| 2026-05-04 07:13 | 33.28614 | 26.43256 | 32133 ft | 398 kts | 302° |
| 2026-05-04 07:13 | 33.31708 | 26.37789 | 32134 ft | 398 kts | 302° |
| 2026-05-04 07:14 | 33.39468 | 26.24043 | 32137 ft | 399 kts | 302° |
| 2026-05-04 07:15 | 33.42567 | 26.18540 | 32137 ft | 399 kts | 302° |
| 2026-05-04 07:15 | 33.45664 | 26.13031 | 32137 ft | 399 kts | 302° |
| 2026-05-04 07:16 | 33.48739 | 26.07553 | 32140 ft | 399 kts | 302° |
| 2026-05-04 07:16 | 33.51840 | 26.02021 | 32139 ft | 399 kts | 302° |
| 2026-05-04 07:17 | 33.54931 | 25.96499 | 32142 ft | 399 kts | 302° |
| 2026-05-04 07:17 | 33.58024 | 25.90964 | 32142 ft | 399 kts | 302° |
| 2026-05-04 07:18 | 33.61092 | 25.85465 | 32145 ft | 399 kts | 302° |
| 2026-05-04 07:18 | 33.64183 | 25.79918 | 32144 ft | 399 kts | 302° |
| 2026-05-04 07:19 | 33.67269 | 25.74370 | 32144 ft | 400 kts | 302° |
| 2026-05-04 07:19 | 33.70358 | 25.68809 | 32144 ft | 400 kts | 302° |
| 2026-05-04 07:20 | 33.73440 | 25.63251 | 32148 ft | 400 kts | 302° |
| 2026-05-04 07:20 | 33.76525 | 25.57680 | 32148 ft | 400 kts | 302° |
| 2026-05-04 07:22 | 33.88307 | 25.36325 | 32150 ft | 400 kts | 302° |
| 2026-05-04 07:23 | 33.91884 | 25.29815 | 32152 ft | 401 kts | 302° |
| 2026-05-04 07:23 | 33.94963 | 25.24203 | 32152 ft | 401 kts | 302° |
| 2026-05-04 07:24 | 33.97524 | 25.19528 | 32156 ft | 401 kts | 302° |
| 2026-05-04 07:24 | 34.00607 | 25.13909 | 32156 ft | 402 kts | 303° |
| 2026-05-04 07:26 | 34.13785 | 24.92058 | 32154 ft | 403 kts | 304° |
| 2026-05-04 07:27 | 34.17072 | 24.86568 | 32156 ft | 403 kts | 304° |
| 2026-05-04 07:27 | 34.20337 | 24.81104 | 32157 ft | 403 kts | 304° |
| 2026-05-04 07:28 | 34.23613 | 24.75610 | 32158 ft | 403 kts | 304° |
| 2026-05-04 07:28 | 34.26890 | 24.70109 | 32163 ft | 403 kts | 304° |
| 2026-05-04 07:29 | 34.30166 | 24.64600 | 32164 ft | 403 kts | 304° |
| 2026-05-04 07:29 | 34.33443 | 24.59082 | 32163 ft | 403 kts | 304° |
| 2026-05-04 07:30 | 34.36715 | 24.53563 | 32164 ft | 404 kts | 304° |
| 2026-05-04 07:30 | 34.39989 | 24.48031 | 32166 ft | 404 kts | 304° |
| 2026-05-04 07:31 | 34.43260 | 24.42497 | 32166 ft | 404 kts | 304° |
| 2026-05-04 07:33 | 34.56320 | 24.20316 | 32169 ft | 404 kts | 304° |
| 2026-05-04 07:33 | 34.59560 | 24.14792 | 32168 ft | 405 kts | 304° |
| 2026-05-04 07:34 | 34.62826 | 24.09214 | 32168 ft | 405 kts | 304° |
| 2026-05-04 07:34 | 34.66092 | 24.03629 | 32170 ft | 405 kts | 304° |
| 2026-05-04 07:35 | 34.69354 | 23.98041 | 32175 ft | 405 kts | 304° |
| 2026-05-04 07:35 | 34.72614 | 23.92447 | 32174 ft | 406 kts | 304° |
| 2026-05-04 07:36 | 34.75876 | 23.86842 | 32175 ft | 406 kts | 304° |
| 2026-05-04 07:38 | 34.88880 | 23.64407 | 32180 ft | 407 kts | 304° |
| 2026-05-04 07:38 | 34.92137 | 23.58765 | 32179 ft | 407 kts | 304° |
| 2026-05-04 07:39 | 34.95392 | 23.53118 | 32184 ft | 407 kts | 304° |
| 2026-05-04 07:39 | 34.98648 | 23.47460 | 32184 ft | 408 kts | 304° |
| 2026-05-04 07:40 | 35.01907 | 23.41789 | 32188 ft | 408 kts | 304° |
| 2026-05-04 07:40 | 35.05143 | 23.36147 | 32189 ft | 408 kts | 304° |
| 2026-05-04 07:41 | 35.08399 | 23.30462 | 32192 ft | 408 kts | 304° |
| 2026-05-04 07:41 | 35.11654 | 23.24769 | 32195 ft | 409 kts | 304° |
| 2026-05-04 07:42 | 35.14915 | 23.19059 | 32192 ft | 409 kts | 304° |
| 2026-05-04 07:42 | 35.18148 | 23.13385 | 32191 ft | 409 kts | 304° |
| 2026-05-04 07:43 | 35.21405 | 23.07661 | 32189 ft | 410 kts | 304° |
| 2026-05-04 07:43 | 35.24664 | 23.01926 | 32202 ft | 410 kts | 304° |
| 2026-05-04 07:44 | 35.27918 | 22.96188 | 32201 ft | 410 kts | 304° |
| 2026-05-04 07:44 | 35.31175 | 22.90436 | 32199 ft | 411 kts | 304° |
| 2026-05-04 07:45 | 35.34431 | 22.84677 | 32195 ft | 411 kts | 304° |
| 2026-05-04 07:45 | 35.37660 | 22.78955 | 32201 ft | 411 kts | 304° |
| 2026-05-04 07:46 | 35.40914 | 22.73181 | 32200 ft | 411 kts | 304° |
| 2026-05-04 07:46 | 35.44163 | 22.67405 | 32194 ft | 411 kts | 304° |
| 2026-05-04 07:47 | 35.47411 | 22.61621 | 32197 ft | 412 kts | 304° |
| 2026-05-04 07:49 | 35.60394 | 22.38408 | 32198 ft | 413 kts | 304° |
| 2026-05-04 07:49 | 35.63641 | 22.32578 | 32197 ft | 413 kts | 304° |
| 2026-05-04 07:50 | 35.66870 | 22.26770 | 32194 ft | 414 kts | 304° |
| 2026-05-04 07:50 | 35.70117 | 22.20920 | 32196 ft | 414 kts | 304° |
| 2026-05-04 07:51 | 35.73367 | 22.15057 | 32197 ft | 414 kts | 304° |
| 2026-05-04 07:51 | 35.76613 | 22.09189 | 32198 ft | 415 kts | 304° |
| 2026-05-04 07:52 | 35.79859 | 22.03312 | 32199 ft | 415 kts | 304° |
| 2026-05-04 07:52 | 35.83099 | 21.97434 | 32197 ft | 415 kts | 304° |
| 2026-05-04 07:54 | 35.96006 | 21.73924 | 32193 ft | 414 kts | 304° |
| 2026-05-04 07:55 | 35.99228 | 21.68030 | 32208 ft | 414 kts | 304° |
| 2026-05-04 07:55 | 36.02449 | 21.62129 | 32206 ft | 414 kts | 305° |
| 2026-05-04 07:56 | 36.05666 | 21.56224 | 32206 ft | 414 kts | 305° |
| 2026-05-04 07:56 | 36.08879 | 21.50315 | 32189 ft | 414 kts | 305° |
| 2026-05-04 07:57 | 36.12091 | 21.44399 | 32188 ft | 414 kts | 305° |
| 2026-05-04 07:57 | 36.15282 | 21.38511 | 32201 ft | 414 kts | 305° |
| 2026-05-04 07:58 | 36.18491 | 21.32581 | 32202 ft | 414 kts | 305° |
| 2026-05-04 07:58 | 36.21702 | 21.26635 | 32202 ft | 415 kts | 305° |
| 2026-05-04 07:59 | 36.24909 | 21.20688 | 32203 ft | 415 kts | 305° |
| 2026-05-04 07:59 | 36.28117 | 21.14728 | 32201 ft | 415 kts | 305° |
| 2026-05-04 08:00 | 36.31299 | 21.08805 | 32205 ft | 416 kts | 305° |
| 2026-05-04 08:02 | 36.44135 | 20.84811 | 32204 ft | 417 kts | 305° |
| 2026-05-04 08:02 | 36.47342 | 20.78790 | 32201 ft | 418 kts | 305° |
| 2026-05-04 08:03 | 36.50525 | 20.72803 | 32204 ft | 418 kts | 305° |
| 2026-05-04 08:03 | 36.53730 | 20.66763 | 32194 ft | 418 kts | 305° |
| 2026-05-04 08:04 | 36.56929 | 20.60725 | 32200 ft | 418 kts | 305° |
| 2026-05-04 08:04 | 36.60128 | 20.54677 | 32200 ft | 418 kts | 305° |
| 2026-05-04 08:05 | 36.63308 | 20.48654 | 32200 ft | 419 kts | 305° |
| 2026-05-04 08:05 | 36.66511 | 20.42575 | 32199 ft | 420 kts | 305° |
| 2026-05-04 08:06 | 36.69716 | 20.36481 | 32200 ft | 420 kts | 305° |
| 2026-05-04 08:06 | 36.72921 | 20.30378 | 32200 ft | 421 kts | 305° |
| 2026-05-04 08:08 | 36.85711 | 20.05908 | 32199 ft | 422 kts | 304° |
| 2026-05-04 08:11 | 37.00092 | 19.78180 | 32198 ft | 423 kts | 304° |
| 2026-05-04 08:11 | 37.04888 | 19.68882 | 32193 ft | 424 kts | 304° |
| 2026-05-04 08:12 | 37.08086 | 19.62667 | 32207 ft | 425 kts | 304° |
| 2026-05-04 08:12 | 37.11292 | 19.56424 | 32206 ft | 426 kts | 304° |
| 2026-05-04 08:13 | 37.14494 | 19.50179 | 32204 ft | 426 kts | 304° |
| 2026-05-04 08:13 | 37.17678 | 19.43958 | 32197 ft | 427 kts | 304° |
| 2026-05-04 08:14 | 37.20882 | 19.37684 | 32198 ft | 427 kts | 304° |
| 2026-05-04 08:16 | 37.33152 | 19.13549 | 32194 ft | 429 kts | 304° |
| 2026-05-04 08:16 | 37.36351 | 19.07229 | 32196 ft | 429 kts | 304° |
| 2026-05-04 08:17 | 37.39555 | 19.00877 | 32196 ft | 430 kts | 303° |
| 2026-05-04 08:17 | 37.42385 | 18.94246 | 32194 ft | 431 kts | 299° |
| 2026-05-04 08:19 | 37.53261 | 18.67279 | 32191 ft | 433 kts | 299° |
| 2026-05-04 08:20 | 37.55987 | 18.60511 | 32193 ft | 433 kts | 298° |
| 2026-05-04 08:20 | 37.58697 | 18.53768 | 32193 ft | 434 kts | 298° |
| 2026-05-04 08:21 | 37.61420 | 18.46976 | 32195 ft | 434 kts | 298° |
| 2026-05-04 08:21 | 37.64146 | 18.40164 | 32191 ft | 435 kts | 298° |
| 2026-05-04 08:22 | 37.66869 | 18.33342 | 32196 ft | 435 kts | 298° |
| 2026-05-04 08:24 | 37.77738 | 18.05967 | 32193 ft | 437 kts | 298° |
| 2026-05-04 08:24 | 37.80455 | 17.99085 | 32192 ft | 437 kts | 298° |
| 2026-05-04 08:25 | 37.83168 | 17.92201 | 32191 ft | 437 kts | 298° |
| 2026-05-04 08:25 | 37.85881 | 17.85298 | 32192 ft | 438 kts | 298° |
| 2026-05-04 08:27 | 37.96704 | 17.57613 | 32193 ft | 440 kts | 297° |
| 2026-05-04 08:28 | 37.99411 | 17.50651 | 32189 ft | 440 kts | 297° |
| 2026-05-04 08:28 | 38.02096 | 17.43728 | 32190 ft | 441 kts | 297° |
| 2026-05-04 08:29 | 38.04803 | 17.36735 | 32190 ft | 441 kts | 297° |
| 2026-05-04 08:31 | 38.15589 | 17.08706 | 32188 ft | 443 kts | 297° |
| 2026-05-04 08:33 | 38.26366 | 16.80440 | 32181 ft | 445 kts | 297° |
| 2026-05-04 08:35 | 38.37112 | 16.51994 | 32185 ft | 447 kts | 296° |
| 2026-05-04 08:35 | 38.39801 | 16.44832 | 32192 ft | 448 kts | 296° |
| 2026-05-04 08:37 | 38.49194 | 16.19687 | 32195 ft | 448 kts | 296° |
| 2026-05-04 08:38 | 38.51856 | 16.12524 | 32203 ft | 449 kts | 296° |
| 2026-05-04 08:38 | 38.54530 | 16.05307 | 32199 ft | 450 kts | 296° |
| 2026-05-04 08:40 | 38.65194 | 15.76366 | 32204 ft | 449 kts | 295° |
| 2026-05-04 08:41 | 38.67831 | 15.69166 | 32207 ft | 449 kts | 295° |
| 2026-05-04 08:41 | 38.70478 | 15.61921 | 32206 ft | 449 kts | 295° |
| 2026-05-04 08:42 | 38.73120 | 15.54671 | 32207 ft | 449 kts | 295° |
| 2026-05-04 08:42 | 38.75756 | 15.47422 | 32204 ft | 449 kts | 295° |
| 2026-05-04 08:43 | 38.78394 | 15.40147 | 32208 ft | 450 kts | 295° |
| 2026-05-04 08:43 | 38.81026 | 15.32871 | 32208 ft | 450 kts | 295° |
| 2026-05-04 08:44 | 38.83653 | 15.25594 | 32211 ft | 450 kts | 295° |
| 2026-05-04 08:46 | 38.94098 | 14.96475 | 32206 ft | 449 kts | 295° |
| 2026-05-04 08:46 | 38.96698 | 14.89181 | 32202 ft | 448 kts | 295° |
| 2026-05-04 08:47 | 38.99292 | 14.81885 | 32205 ft | 448 kts | 295° |
| 2026-05-04 08:47 | 39.01860 | 14.74645 | 32207 ft | 447 kts | 295° |
| 2026-05-04 08:48 | 39.04436 | 14.67366 | 32205 ft | 447 kts | 295° |
| 2026-05-04 08:48 | 39.07010 | 14.60074 | 32206 ft | 446 kts | 295° |
| 2026-05-04 08:49 | 39.09556 | 14.52843 | 32207 ft | 446 kts | 295° |
| 2026-05-04 08:50 | 39.18462 | 14.27404 | 32201 ft | 443 kts | 295° |
| 2026-05-04 08:51 | 39.20973 | 14.20193 | 32199 ft | 443 kts | 295° |
| 2026-05-04 08:51 | 39.23486 | 14.12956 | 32198 ft | 442 kts | 295° |
| 2026-05-04 08:52 | 39.25996 | 14.05710 | 32197 ft | 441 kts | 295° |
| 2026-05-04 08:52 | 39.28495 | 13.98480 | 32192 ft | 440 kts | 295° |
| 2026-05-04 08:54 | 39.38383 | 13.69684 | 32201 ft | 437 kts | 294° |
| 2026-05-04 08:55 | 39.40839 | 13.62486 | 32186 ft | 437 kts | 294° |
| 2026-05-04 08:55 | 39.43284 | 13.55304 | 32186 ft | 437 kts | 294° |
| 2026-05-04 09:01 | 39.66359 | 12.78665 | 32176 ft | 434 kts | 288° |
| 2026-05-04 09:01 | 39.68120 | 12.71155 | 32180 ft | 434 kts | 287° |
| 2026-05-04 09:02 | 39.69580 | 12.64913 | 32188 ft | 434 kts | 287° |
| 2026-05-04 09:02 | 39.71333 | 12.57395 | 32170 ft | 434 kts | 287° |
| 2026-05-04 09:03 | 39.73359 | 12.48674 | 32186 ft | 434 kts | 287° |
| 2026-05-04 09:03 | 39.74815 | 12.42387 | 32177 ft | 433 kts | 287° |
| 2026-05-04 09:04 | 39.76548 | 12.34879 | 32184 ft | 433 kts | 287° |
| 2026-05-04 09:04 | 39.78271 | 12.27388 | 32179 ft | 432 kts | 287° |
| 2026-05-04 09:05 | 39.79977 | 12.19951 | 32174 ft | 432 kts | 287° |
| 2026-05-04 09:05 | 39.81687 | 12.12467 | 32172 ft | 431 kts | 287° |
| 2026-05-04 09:06 | 39.83394 | 12.04973 | 32165 ft | 431 kts | 287° |
| 2026-05-04 09:08 | 39.90142 | 11.75105 | 32173 ft | 430 kts | 286° |
| 2026-05-04 09:08 | 39.91819 | 11.67621 | 32167 ft | 430 kts | 286° |
| 2026-05-04 09:09 | 39.93488 | 11.60147 | 32164 ft | 430 kts | 286° |
| 2026-05-04 09:09 | 39.95151 | 11.52672 | 32161 ft | 430 kts | 286° |
| 2026-05-04 09:10 | 39.96810 | 11.45194 | 32167 ft | 429 kts | 286° |
| 2026-05-04 09:10 | 39.98465 | 11.37705 | 32155 ft | 429 kts | 286° |
| 2026-05-04 09:11 | 40.00116 | 11.30211 | 32158 ft | 429 kts | 285° |
| 2026-05-04 09:11 | 40.01762 | 11.22715 | 32152 ft | 429 kts | 285° |
| 2026-05-04 09:12 | 40.03387 | 11.15287 | 32154 ft | 429 kts | 285° |
| 2026-05-04 09:14 | 40.09880 | 10.85353 | 32151 ft | 427 kts | 285° |
| 2026-05-04 09:14 | 40.11477 | 10.77930 | 32146 ft | 427 kts | 285° |
| 2026-05-04 09:15 | 40.13077 | 10.70460 | 32138 ft | 426 kts | 285° |
| 2026-05-04 09:15 | 40.14671 | 10.63001 | 32134 ft | 426 kts | 285° |
| 2026-05-04 09:17 | 40.23665 | 10.30236 | 32126 ft | 426 kts | 289° |
| 2026-05-04 09:18 | 40.25798 | 10.23002 | 32126 ft | 426 kts | 289° |
| 2026-05-04 09:18 | 40.27927 | 10.15758 | 32124 ft | 426 kts | 289° |
| 2026-05-04 09:19 | 40.30037 | 10.08557 | 32134 ft | 426 kts | 289° |
| 2026-05-04 09:19 | 40.32166 | 10.01270 | 32129 ft | 425 kts | 289° |
| 2026-05-04 09:20 | 40.34264 | 9.94073 | 32126 ft | 425 kts | 289° |
| 2026-05-04 09:20 | 40.36371 | 9.86823 | 32112 ft | 425 kts | 289° |
| 2026-05-04 09:21 | 40.38474 | 9.79569 | 32113 ft | 425 kts | 289° |
| 2026-05-04 09:21 | 40.40572 | 9.72312 | 32127 ft | 425 kts | 288° |
| 2026-05-04 09:22 | 40.42663 | 9.65054 | 32109 ft | 425 kts | 288° |
| 2026-05-04 09:22 | 40.44735 | 9.57848 | 32126 ft | 424 kts | 288° |
| 2026-05-04 09:23 | 40.46816 | 9.50590 | 32129 ft | 425 kts | 288° |
| 2026-05-04 09:23 | 40.48894 | 9.43318 | 32120 ft | 425 kts | 288° |
| 2026-05-04 09:25 | 40.57136 | 9.14283 | 32106 ft | 424 kts | 288° |
| 2026-05-04 09:26 | 40.59188 | 9.06999 | 32096 ft | 424 kts | 288° |
| 2026-05-04 09:26 | 40.61237 | 8.99710 | 32099 ft | 425 kts | 288° |
| 2026-05-04 09:27 | 40.63281 | 8.92416 | 32087 ft | 425 kts | 288° |
| 2026-05-04 09:27 | 40.65324 | 8.85103 | 32089 ft | 425 kts | 287° |
| 2026-05-04 09:28 | 40.67361 | 8.77792 | 32079 ft | 425 kts | 287° |
| 2026-05-04 09:28 | 40.69380 | 8.70525 | 32078 ft | 426 kts | 287° |
| 2026-05-04 09:29 | 40.71413 | 8.63189 | 32074 ft | 426 kts | 287° |
| 2026-05-04 09:29 | 40.73440 | 8.55848 | 32069 ft | 426 kts | 287° |
| 2026-05-04 09:30 | 40.75464 | 8.48501 | 32064 ft | 426 kts | 287° |
| 2026-05-04 09:30 | 40.77485 | 8.41142 | 32055 ft | 426 kts | 287° |
| 2026-05-04 09:31 | 40.79502 | 8.33776 | 32058 ft | 426 kts | 287° |
| 2026-05-04 09:31 | 40.81500 | 8.26457 | 32057 ft | 426 kts | 287° |
| 2026-05-04 09:32 | 40.83507 | 8.19085 | 32063 ft | 426 kts | 287° |
| 2026-05-04 09:34 | 40.86657 | 7.92328 | 32081 ft | 423 kts | 274° |
| 2026-05-04 09:34 | 40.86940 | 7.88452 | 32079 ft | 424 kts | 274° |
| 2026-05-04 09:34 | 40.87511 | 7.80706 | 32077 ft | 424 kts | 274° |
| 2026-05-04 09:35 | 40.88055 | 7.72986 | 32077 ft | 424 kts | 274° |
| 2026-05-04 09:35 | 40.88583 | 7.65213 | 32077 ft | 424 kts | 273° |
| 2026-05-04 09:37 | 40.90616 | 7.34224 | 32069 ft | 423 kts | 273° |
| 2026-05-04 09:38 | 40.91111 | 7.26474 | 32076 ft | 423 kts | 272° |
| 2026-05-04 09:38 | 40.91602 | 7.18713 | 32067 ft | 423 kts | 272° |
| 2026-05-04 09:39 | 40.92087 | 7.10961 | 32065 ft | 423 kts | 272° |
| 2026-05-04 09:39 | 40.92566 | 7.03215 | 32068 ft | 423 kts | 272° |
| 2026-05-04 09:40 | 40.93037 | 6.95515 | 32064 ft | 423 kts | 272° |
| 2026-05-04 09:40 | 40.93507 | 6.87763 | 32062 ft | 423 kts | 272° |
| 2026-05-04 09:42 | 40.95334 | 6.56702 | 32052 ft | 423 kts | 272° |
| 2026-05-04 09:43 | 40.95774 | 6.49001 | 32053 ft | 422 kts | 271° |
| 2026-05-04 09:43 | 40.96212 | 6.41254 | 32051 ft | 422 kts | 271° |
| 2026-05-04 09:44 | 40.96644 | 6.33508 | 32043 ft | 422 kts | 271° |
| 2026-05-04 09:46 | 40.98316 | 6.02597 | 32036 ft | 422 kts | 271° |
| 2026-05-04 09:46 | 40.98722 | 5.94849 | 32031 ft | 421 kts | 271° |
| 2026-05-04 09:47 | 40.99122 | 5.87117 | 32041 ft | 421 kts | 271° |
| 2026-05-04 09:49 | 41.00674 | 5.56108 | 32028 ft | 422 kts | 270° |
| 2026-05-04 09:51 | 41.02015 | 5.28949 | 32024 ft | 424 kts | 270° |
| 2026-05-04 09:51 | 41.02428 | 5.21150 | 32023 ft | 424 kts | 270° |
| 2026-05-04 09:52 | 41.02764 | 5.14656 | 32024 ft | 425 kts | 270° |
| 2026-05-04 09:52 | 41.03161 | 5.06841 | 32010 ft | 425 kts | 270° |
| 2026-05-04 09:53 | 41.03553 | 4.99017 | 32019 ft | 425 kts | 270° |
| 2026-05-04 09:53 | 41.03940 | 4.91198 | 32020 ft | 426 kts | 270° |
| 2026-05-04 09:54 | 41.04323 | 4.83373 | 32017 ft | 426 kts | 270° |
| 2026-05-04 09:54 | 41.04796 | 4.75529 | 32012 ft | 429 kts | 274° |
| 2026-05-04 09:55 | 41.05686 | 4.67709 | 32014 ft | 429 kts | 274° |
| 2026-05-04 09:55 | 41.06527 | 4.59862 | 32022 ft | 430 kts | 273° |
| 2026-05-04 09:56 | 41.07338 | 4.52055 | 32012 ft | 430 kts | 273° |
| 2026-05-04 09:56 | 41.08170 | 4.44184 | 32005 ft | 430 kts | 274° |
| 2026-05-04 09:57 | 41.09006 | 4.36386 | 32006 ft | 429 kts | 273° |
| 2026-05-04 09:57 | 41.09841 | 4.28543 | 32010 ft | 429 kts | 273° |
| 2026-05-04 09:58 | 41.10669 | 4.20679 | 32002 ft | 431 kts | 273° |
| 2026-05-04 09:58 | 41.11492 | 4.12816 | 32006 ft | 430 kts | 273° |
| 2026-05-04 10:00 | 41.14723 | 3.81411 | 31992 ft | 430 kts | 272° |
| 2026-05-04 10:04 | 41.20129 | 3.26419 | 31993 ft | 429 kts | 272° |
| 2026-05-04 10:04 | 41.20888 | 3.18570 | 31992 ft | 428 kts | 272° |
| 2026-05-04 10:05 | 41.21639 | 3.10722 | 31983 ft | 429 kts | 271° |
| 2026-05-04 10:05 | 41.22382 | 3.02866 | 31980 ft | 429 kts | 271° |
| 2026-05-04 10:06 | 41.23122 | 2.95001 | 31981 ft | 429 kts | 271° |
| 2026-05-04 10:06 | 41.23856 | 2.87137 | 31976 ft | 429 kts | 271° |
| 2026-05-04 10:08 | 41.26385 | 2.59594 | 31974 ft | 430 kts | 271° |
| 2026-05-04 10:08 | 41.27097 | 2.51702 | 31968 ft | 430 kts | 271° |
| 2026-05-04 10:09 | 41.27804 | 2.43814 | 31966 ft | 430 kts | 271° |
| 2026-05-04 10:09 | 41.28505 | 2.35921 | 31973 ft | 430 kts | 271° |
| 2026-05-04 10:10 | 41.29201 | 2.28023 | 31968 ft | 430 kts | 271° |
| 2026-05-04 10:10 | 41.29893 | 2.20118 | 31969 ft | 430 kts | 271° |
| 2026-05-04 10:11 | 41.30654 | 2.12259 | 31968 ft | 433 kts | 275° |
| 2026-05-04 10:11 | 41.32261 | 2.04452 | 31973 ft | 441 kts | 282° |
| 2026-05-04 10:12 | 41.34270 | 1.96722 | 31971 ft | 441 kts | 282° |
| 2026-05-04 10:12 | 41.36252 | 1.88990 | 31973 ft | 441 kts | 282° |
| 2026-05-04 10:13 | 41.38213 | 1.81247 | 31976 ft | 442 kts | 282° |
| 2026-05-04 10:13 | 41.40170 | 1.73486 | 31974 ft | 442 kts | 282° |
| 2026-05-04 10:14 | 41.41151 | 1.69587 | 32126 ft | 445 kts | 282° |
| 2026-05-04 10:14 | 41.42127 | 1.65679 | 32482 ft | 443 kts | 281° |
| 2026-05-04 10:16 | 41.48505 | 1.38413 | 33965 ft | 441 kts | 280° |
| 2026-05-04 10:16 | 41.49415 | 1.34513 | 33977 ft | 439 kts | 280° |
| 2026-05-04 10:16 | 41.51221 | 1.26752 | 33973 ft | 438 kts | 280° |
| 2026-05-04 10:17 | 41.53018 | 1.18991 | 33985 ft | 437 kts | 280° |
| 2026-05-04 10:19 | 41.60917 | 0.88207 | 34001 ft | 439 kts | 282° |
| 2026-05-04 10:19 | 41.62930 | 0.80491 | 33997 ft | 439 kts | 282° |
| 2026-05-04 10:20 | 41.64936 | 0.72779 | 33994 ft | 439 kts | 282° |
| 2026-05-04 10:20 | 41.66916 | 0.65060 | 33996 ft | 438 kts | 281° |
| 2026-05-04 10:21 | 41.68765 | 0.57300 | 33995 ft | 437 kts | 280° |
| 2026-05-04 10:21 | 41.70596 | 0.49535 | 33999 ft | 438 kts | 281° |
| 2026-05-04 10:22 | 41.73360 | 0.37886 | 33996 ft | 438 kts | 281° |
| 2026-05-04 10:23 | 41.75190 | 0.30164 | 33994 ft | 438 kts | 281° |
| 2026-05-04 10:25 | 41.82581 | -0.01020 | 33985 ft | 439 kts | 281° |
| 2026-05-04 10:25 | 41.84383 | -0.08781 | 33990 ft | 439 kts | 281° |
| 2026-05-04 10:26 | 41.86195 | -0.16599 | 33990 ft | 439 kts | 281° |
| 2026-05-04 10:26 | 41.88000 | -0.24422 | 33989 ft | 438 kts | 281° |
| 2026-05-04 10:27 | 41.89800 | -0.32245 | 33993 ft | 438 kts | 281° |
| 2026-05-04 10:27 | 41.91594 | -0.40070 | 33992 ft | 438 kts | 280° |
| 2026-05-04 10:28 | 41.93380 | -0.47887 | 33991 ft | 438 kts | 280° |